sensor_id;sensor_type;location;lat;lon;timestamp;P1;durP1;ratioP1;P2;durP2;ratioP2
49502;SDS011;35409;48.776;9.204;2023-01-10T00:00:12;1.55;;;0.93;;
49502;SDS011;35409;48.776;9.204;2023-01-10T00:02:38;1.15;;;0.43;;
49502;SDS011;35409;48.776;9.204;2023-01-10T00:05:04;1.92;;;0.70;;
49502;SDS011;35409;48.776;9.204;2023-01-10T00:07:30;1.45;;;0.55;;
49502;SDS011;35409;48.776;9.204;2023-01-10T00:09:55;1.10;;;0.40;;
49502;SDS011;35409;48.776;9.204;2023-01-10T00:12:21;1.45;;;0.47;;
49502;SDS011;35409;48.776;9.204;2023-01-10T00:15:05;1.63;;;0.50;;
49502;SDS011;35409;48.776;9.204;2023-01-10T00:17:31;1.95;;;0.60;;
49502;SDS011;35409;48.776;9.204;2023-01-10T00:19:57;2.60;;;0.60;;
49502;SDS011;35409;48.776;9.204;2023-01-10T00:22:22;2.17;;;0.65;;
49502;SDS011;35409;48.776;9.204;2023-01-10T00:24:50;1.35;;;0.40;;
49502;SDS011;35409;48.776;9.204;2023-01-10T00:27:16;0.70;;;0.30;;
49502;SDS011;35409;48.776;9.204;2023-01-10T00:29:46;1.95;;;0.50;;
49502;SDS011;35409;48.776;9.204;2023-01-10T00:32:13;2.05;;;0.80;;
49502;SDS011;35409;48.776;9.204;2023-01-10T00:34:39;1.48;;;0.60;;
49502;SDS011;35409;48.776;9.204;2023-01-10T00:37:04;0.65;;;0.30;;
49502;SDS011;35409;48.776;9.204;2023-01-10T00:39:30;1.05;;;0.40;;
49502;SDS011;35409;48.776;9.204;2023-01-10T00:41:56;2.45;;;0.50;;
49502;SDS011;35409;48.776;9.204;2023-01-10T00:44:40;1.73;;;0.60;;
49502;SDS011;35409;48.776;9.204;2023-01-10T00:47:06;1.02;;;0.30;;
49502;SDS011;35409;48.776;9.204;2023-01-10T00:49:31;1.80;;;0.45;;
49502;SDS011;35409;48.776;9.204;2023-01-10T00:51:57;0.93;;;0.50;;
49502;SDS011;35409;48.776;9.204;2023-01-10T00:54:23;2.50;;;0.45;;
49502;SDS011;35409;48.776;9.204;2023-01-10T00:56:49;1.77;;;0.60;;
49502;SDS011;35409;48.776;9.204;2023-01-10T00:59:15;2.28;;;0.40;;
49502;SDS011;35409;48.776;9.204;2023-01-10T01:01:41;1.77;;;0.82;;
49502;SDS011;35409;48.776;9.204;2023-01-10T01:04:06;1.80;;;0.65;;
49502;SDS011;35409;48.776;9.204;2023-01-10T01:06:32;1.02;;;0.70;;
49502;SDS011;35409;48.776;9.204;2023-01-10T01:08:58;1.95;;;1.08;;
49502;SDS011;35409;48.776;9.204;2023-01-10T01:11:23;1.38;;;0.68;;
49502;SDS011;35409;48.776;9.204;2023-01-10T01:13:49;2.35;;;0.93;;
49502;SDS011;35409;48.776;9.204;2023-01-10T01:16:15;0.55;;;0.50;;
49502;SDS011;35409;48.776;9.204;2023-01-10T01:18:41;0.90;;;0.60;;
49502;SDS011;35409;48.776;9.204;2023-01-10T01:21:07;1.33;;;0.60;;
49502;SDS011;35409;48.776;9.204;2023-01-10T01:23:33;1.40;;;0.80;;
49502;SDS011;35409;48.776;9.204;2023-01-10T01:25:59;3.05;;;0.68;;
49502;SDS011;35409;48.776;9.204;2023-01-10T01:28:25;2.33;;;0.80;;
49502;SDS011;35409;48.776;9.204;2023-01-10T01:30:51;4.10;;;0.93;;
49502;SDS011;35409;48.776;9.204;2023-01-10T01:33:17;1.27;;;0.90;;
49502;SDS011;35409;48.776;9.204;2023-01-10T01:35:44;2.17;;;1.00;;
49502;SDS011;35409;48.776;9.204;2023-01-10T01:38:11;0.57;;;0.57;;
49502;SDS011;35409;48.776;9.204;2023-01-10T01:40:37;0.65;;;0.40;;
49502;SDS011;35409;48.776;9.204;2023-01-10T01:43:03;0.70;;;0.52;;
49502;SDS011;35409;48.776;9.204;2023-01-10T01:45:31;1.95;;;0.60;;
49502;SDS011;35409;48.776;9.204;2023-01-10T01:48:02;0.50;;;0.40;;
49502;SDS011;35409;48.776;9.204;2023-01-10T01:53:30;0.32;;;0.25;;
49502;SDS011;35409;48.776;9.204;2023-01-10T01:56:17;0.85;;;0.30;;
49502;SDS011;35409;48.776;9.204;2023-01-10T02:01:20;2.65;;;0.40;;
49502;SDS011;35409;48.776;9.204;2023-01-10T02:03:47;0.60;;;0.28;;
49502;SDS011;35409;48.776;9.204;2023-01-10T02:06:17;0.32;;;0.30;;
49502;SDS011;35409;48.776;9.204;2023-01-10T02:08:50;1.42;;;0.30;;
49502;SDS011;35409;48.776;9.204;2023-01-10T02:11:18;0.43;;;0.30;;
49502;SDS011;35409;48.776;9.204;2023-01-10T02:13:44;1.27;;;0.43;;
49502;SDS011;35409;48.776;9.204;2023-01-10T02:16:11;0.82;;;0.30;;
49502;SDS011;35409;48.776;9.204;2023-01-10T02:18:37;0.52;;;0.40;;
49502;SDS011;35409;48.776;9.204;2023-01-10T02:21:11;0.57;;;0.40;;
49502;SDS011;35409;48.776;9.204;2023-01-10T02:23:58;0.73;;;0.30;;
49502;SDS011;35409;48.776;9.204;2023-01-10T02:32:23;0.40;;;0.40;;
49502;SDS011;35409;48.776;9.204;2023-01-10T02:35:27;1.10;;;0.60;;
49502;SDS011;35409;48.776;9.204;2023-01-10T02:38:17;2.28;;;0.60;;
49502;SDS011;35409;48.776;9.204;2023-01-10T02:41:17;4.97;;;1.83;;
49502;SDS011;35409;48.776;9.204;2023-01-10T02:44:02;1.48;;;0.60;;
49502;SDS011;35409;48.776;9.204;2023-01-10T02:46:29;0.75;;;0.70;;
49502;SDS011;35409;48.776;9.204;2023-01-10T02:48:55;1.65;;;0.90;;
49502;SDS011;35409;48.776;9.204;2023-01-10T02:51:25;3.42;;;0.85;;
49502;SDS011;35409;48.776;9.204;2023-01-10T02:53:54;1.77;;;0.80;;
49502;SDS011;35409;48.776;9.204;2023-01-10T03:10:40;1.38;;;0.80;;
49502;SDS011;35409;48.776;9.204;2023-01-10T03:13:43;4.57;;;1.00;;
49502;SDS011;35409;48.776;9.204;2023-01-10T03:16:16;2.88;;;0.90;;
49502;SDS011;35409;48.776;9.204;2023-01-10T03:18:45;5.30;;;1.15;;
49502;SDS011;35409;48.776;9.204;2023-01-10T03:21:15;7.13;;;1.40;;
49502;SDS011;35409;48.776;9.204;2023-01-10T03:23:44;3.05;;;1.25;;
49502;SDS011;35409;48.776;9.204;2023-01-10T03:26:12;4.93;;;1.40;;
49502;SDS011;35409;48.776;9.204;2023-01-10T03:31:13;2.40;;;1.27;;
49502;SDS011;35409;48.776;9.204;2023-01-10T03:33:43;6.43;;;1.35;;
49502;SDS011;35409;48.776;9.204;2023-01-10T03:36:29;8.75;;;2.03;;
49502;SDS011;35409;48.776;9.204;2023-01-10T03:45:57;6.68;;;2.55;;
49502;SDS011;35409;48.776;9.204;2023-01-10T03:48:27;9.88;;;3.60;;
49502;SDS011;35409;48.776;9.204;2023-01-10T03:50:57;5.75;;;1.88;;
49502;SDS011;35409;48.776;9.204;2023-01-10T03:53:24;5.93;;;1.73;;
49502;SDS011;35409;48.776;9.204;2023-01-10T03:55:50;8.50;;;1.75;;
49502;SDS011;35409;48.776;9.204;2023-01-10T03:58:16;9.43;;;2.10;;
49502;SDS011;35409;48.776;9.204;2023-01-10T04:00:45;4.18;;;1.67;;
49502;SDS011;35409;48.776;9.204;2023-01-10T04:03:11;5.18;;;1.63;;
49502;SDS011;35409;48.776;9.204;2023-01-10T04:05:37;5.55;;;1.90;;
49502;SDS011;35409;48.776;9.204;2023-01-10T04:08:03;6.82;;;1.58;;
49502;SDS011;35409;48.776;9.204;2023-01-10T04:10:28;5.68;;;1.55;;
49502;SDS011;35409;48.776;9.204;2023-01-10T04:12:57;6.00;;;1.73;;
49502;SDS011;35409;48.776;9.204;2023-01-10T04:15:25;4.22;;;1.40;;
49502;SDS011;35409;48.776;9.204;2023-01-10T04:17:51;4.18;;;1.80;;
49502;SDS011;35409;48.776;9.204;2023-01-10T04:20:16;4.78;;;1.60;;
49502;SDS011;35409;48.776;9.204;2023-01-10T04:22:43;3.97;;;1.20;;
49502;SDS011;35409;48.776;9.204;2023-01-10T04:25:09;4.80;;;1.50;;
49502;SDS011;35409;48.776;9.204;2023-01-10T04:27:35;2.28;;;1.48;;
49502;SDS011;35409;48.776;9.204;2023-01-10T04:30:01;5.85;;;2.15;;
49502;SDS011;35409;48.776;9.204;2023-01-10T04:32:27;8.52;;;1.88;;
49502;SDS011;35409;48.776;9.204;2023-01-10T04:34:53;5.50;;;1.52;;
49502;SDS011;35409;48.776;9.204;2023-01-10T04:37:18;4.38;;;1.42;;
49502;SDS011;35409;48.776;9.204;2023-01-10T04:39:44;5.47;;;1.45;;
49502;SDS011;35409;48.776;9.204;2023-01-10T04:42:09;6.75;;;1.85;;
49502;SDS011;35409;48.776;9.204;2023-01-10T04:44:35;7.90;;;2.33;;
49502;SDS011;35409;48.776;9.204;2023-01-10T04:47:01;5.00;;;2.15;;
49502;SDS011;35409;48.776;9.204;2023-01-10T04:49:27;8.65;;;1.98;;
49502;SDS011;35409;48.776;9.204;2023-01-10T04:51:52;8.82;;;1.80;;
49502;SDS011;35409;48.776;9.204;2023-01-10T04:54:18;5.00;;;1.63;;
49502;SDS011;35409;48.776;9.204;2023-01-10T04:56:45;8.02;;;2.25;;
49502;SDS011;35409;48.776;9.204;2023-01-10T04:59:10;11.60;;;1.90;;
49502;SDS011;35409;48.776;9.204;2023-01-10T05:01:36;7.22;;;1.63;;
49502;SDS011;35409;48.776;9.204;2023-01-10T05:04:03;8.43;;;1.70;;
49502;SDS011;35409;48.776;9.204;2023-01-10T05:06:29;7.90;;;1.90;;
49502;SDS011;35409;48.776;9.204;2023-01-10T05:08:55;6.28;;;1.52;;
49502;SDS011;35409;48.776;9.204;2023-01-10T05:11:21;7.40;;;1.75;;
49502;SDS011;35409;48.776;9.204;2023-01-10T05:13:47;7.55;;;1.92;;
49502;SDS011;35409;48.776;9.204;2023-01-10T05:16:12;10.60;;;2.60;;
49502;SDS011;35409;48.776;9.204;2023-01-10T05:18:38;5.57;;;1.85;;
49502;SDS011;35409;48.776;9.204;2023-01-10T05:21:05;8.05;;;1.85;;
49502;SDS011;35409;48.776;9.204;2023-01-10T05:23:32;9.40;;;1.90;;
49502;SDS011;35409;48.776;9.204;2023-01-10T05:26:03;10.07;;;1.98;;
49502;SDS011;35409;48.776;9.204;2023-01-10T05:28:32;6.78;;;1.75;;
49502;SDS011;35409;48.776;9.204;2023-01-10T05:30:58;14.20;;;2.80;;
49502;SDS011;35409;48.776;9.204;2023-01-10T05:33:23;8.43;;;2.17;;
49502;SDS011;35409;48.776;9.204;2023-01-10T05:35:49;13.10;;;1.95;;
49502;SDS011;35409;48.776;9.204;2023-01-10T05:38:14;14.85;;;2.40;;
49502;SDS011;35409;48.776;9.204;2023-01-10T05:40:40;10.30;;;2.28;;
49502;SDS011;35409;48.776;9.204;2023-01-10T05:43:05;12.73;;;2.35;;
49502;SDS011;35409;48.776;9.204;2023-01-10T05:45:31;12.68;;;2.92;;
49502;SDS011;35409;48.776;9.204;2023-01-10T05:47:56;10.82;;;2.08;;
49502;SDS011;35409;48.776;9.204;2023-01-10T05:50:22;10.10;;;1.58;;
49502;SDS011;35409;48.776;9.204;2023-01-10T05:52:48;12.23;;;2.50;;
49502;SDS011;35409;48.776;9.204;2023-01-10T05:55:13;12.90;;;2.08;;
49502;SDS011;35409;48.776;9.204;2023-01-10T05:57:39;9.80;;;2.15;;
49502;SDS011;35409;48.776;9.204;2023-01-10T06:00:05;7.90;;;1.45;;
49502;SDS011;35409;48.776;9.204;2023-01-10T06:02:31;6.78;;;1.90;;
49502;SDS011;35409;48.776;9.204;2023-01-10T06:04:57;18.10;;;2.40;;
49502;SDS011;35409;48.776;9.204;2023-01-10T06:07:22;13.13;;;2.28;;
49502;SDS011;35409;48.776;9.204;2023-01-10T06:09:48;12.60;;;2.25;;
49502;SDS011;35409;48.776;9.204;2023-01-10T06:12:15;7.47;;;1.83;;
49502;SDS011;35409;48.776;9.204;2023-01-10T06:14:43;15.27;;;3.33;;
49502;SDS011;35409;48.776;9.204;2023-01-10T06:17:09;9.27;;;1.67;;
49502;SDS011;35409;48.776;9.204;2023-01-10T06:19:35;12.15;;;2.17;;
49502;SDS011;35409;48.776;9.204;2023-01-10T06:22:01;14.60;;;2.03;;
49502;SDS011;35409;48.776;9.204;2023-01-10T06:24:27;10.55;;;1.92;;
49502;SDS011;35409;48.776;9.204;2023-01-10T06:26:53;9.73;;;1.92;;
49502;SDS011;35409;48.776;9.204;2023-01-10T06:29:18;9.52;;;1.52;;
49502;SDS011;35409;48.776;9.204;2023-01-10T06:31:44;7.57;;;1.60;;
49502;SDS011;35409;48.776;9.204;2023-01-10T06:34:09;9.43;;;1.98;;
49502;SDS011;35409;48.776;9.204;2023-01-10T06:36:35;6.70;;;1.70;;
49502;SDS011;35409;48.776;9.204;2023-01-10T06:39:00;8.23;;;2.03;;
49502;SDS011;35409;48.776;9.204;2023-01-10T06:41:26;8.15;;;1.90;;
49502;SDS011;35409;48.776;9.204;2023-01-10T06:43:52;10.45;;;2.08;;
49502;SDS011;35409;48.776;9.204;2023-01-10T06:46:17;10.25;;;1.85;;
49502;SDS011;35409;48.776;9.204;2023-01-10T06:48:44;9.98;;;1.90;;
49502;SDS011;35409;48.776;9.204;2023-01-10T06:51:10;13.50;;;2.28;;
49502;SDS011;35409;48.776;9.204;2023-01-10T06:53:37;10.20;;;2.08;;
49502;SDS011;35409;48.776;9.204;2023-01-10T06:56:03;8.38;;;1.75;;
49502;SDS011;35409;48.776;9.204;2023-01-10T06:58:30;11.13;;;1.77;;
49502;SDS011;35409;48.776;9.204;2023-01-10T07:00:56;9.13;;;1.65;;
49502;SDS011;35409;48.776;9.204;2023-01-10T07:03:22;13.15;;;1.80;;
49502;SDS011;35409;48.776;9.204;2023-01-10T07:05:47;7.95;;;1.48;;
49502;SDS011;35409;48.776;9.204;2023-01-10T07:08:13;10.77;;;2.50;;
49502;SDS011;35409;48.776;9.204;2023-01-10T07:10:42;13.48;;;2.22;;
49502;SDS011;35409;48.776;9.204;2023-01-10T07:13:08;7.78;;;1.65;;
49502;SDS011;35409;48.776;9.204;2023-01-10T07:15:34;11.20;;;2.60;;
49502;SDS011;35409;48.776;9.204;2023-01-10T07:18:00;5.88;;;1.73;;
49502;SDS011;35409;48.776;9.204;2023-01-10T07:20:26;9.98;;;1.80;;
49502;SDS011;35409;48.776;9.204;2023-01-10T07:22:52;6.82;;;2.22;;
49502;SDS011;35409;48.776;9.204;2023-01-10T07:25:23;13.98;;;2.75;;
49502;SDS011;35409;48.776;9.204;2023-01-10T07:27:50;11.18;;;1.80;;
49502;SDS011;35409;48.776;9.204;2023-01-10T07:30:16;14.52;;;2.42;;
49502;SDS011;35409;48.776;9.204;2023-01-10T07:32:41;12.70;;;2.25;;
49502;SDS011;35409;48.776;9.204;2023-01-10T07:35:07;6.82;;;1.55;;
49502;SDS011;35409;48.776;9.204;2023-01-10T07:37:33;14.10;;;1.98;;
49502;SDS011;35409;48.776;9.204;2023-01-10T07:39:58;13.48;;;1.98;;
49502;SDS011;35409;48.776;9.204;2023-01-10T07:42:24;6.97;;;1.30;;
49502;SDS011;35409;48.776;9.204;2023-01-10T07:44:50;9.88;;;1.40;;
49502;SDS011;35409;48.776;9.204;2023-01-10T07:47:15;13.30;;;1.63;;
49502;SDS011;35409;48.776;9.204;2023-01-10T07:49:41;8.80;;;1.40;;
49502;SDS011;35409;48.776;9.204;2023-01-10T07:52:06;12.23;;;1.70;;
49502;SDS011;35409;48.776;9.204;2023-01-10T07:54:33;13.63;;;1.77;;
49502;SDS011;35409;48.776;9.204;2023-01-10T07:56:59;9.10;;;1.40;;
49502;SDS011;35409;48.776;9.204;2023-01-10T07:59:25;11.13;;;1.52;;
49502;SDS011;35409;48.776;9.204;2023-01-10T08:01:51;8.73;;;1.98;;
49502;SDS011;35409;48.776;9.204;2023-01-10T08:04:17;15.80;;;2.53;;
49502;SDS011;35409;48.776;9.204;2023-01-10T08:06:44;11.48;;;1.70;;
49502;SDS011;35409;48.776;9.204;2023-01-10T08:09:09;11.05;;;1.60;;
49502;SDS011;35409;48.776;9.204;2023-01-10T08:11:35;10.68;;;1.88;;
49502;SDS011;35409;48.776;9.204;2023-01-10T08:14:01;6.97;;;1.42;;
49502;SDS011;35409;48.776;9.204;2023-01-10T08:16:26;11.95;;;1.77;;
49502;SDS011;35409;48.776;9.204;2023-01-10T08:18:52;10.93;;;2.45;;
49502;SDS011;35409;48.776;9.204;2023-01-10T08:21:18;9.57;;;1.75;;
49502;SDS011;35409;48.776;9.204;2023-01-10T08:23:43;10.65;;;2.17;;
49502;SDS011;35409;48.776;9.204;2023-01-10T08:26:09;7.60;;;1.60;;
49502;SDS011;35409;48.776;9.204;2023-01-10T08:28:34;10.00;;;2.33;;
49502;SDS011;35409;48.776;9.204;2023-01-10T08:31:03;10.98;;;2.08;;
49502;SDS011;35409;48.776;9.204;2023-01-10T08:33:33;11.75;;;1.77;;
49502;SDS011;35409;48.776;9.204;2023-01-10T08:35:58;16.95;;;2.92;;
49502;SDS011;35409;48.776;9.204;2023-01-10T08:38:24;9.57;;;1.88;;
49502;SDS011;35409;48.776;9.204;2023-01-10T08:40:49;8.85;;;2.33;;
49502;SDS011;35409;48.776;9.204;2023-01-10T08:43:15;8.65;;;1.70;;
49502;SDS011;35409;48.776;9.204;2023-01-10T08:45:41;9.55;;;1.80;;
49502;SDS011;35409;48.776;9.204;2023-01-10T08:48:06;9.07;;;1.90;;
49502;SDS011;35409;48.776;9.204;2023-01-10T08:50:34;10.48;;;1.65;;
49502;SDS011;35409;48.776;9.204;2023-01-10T08:53:00;11.23;;;2.28;;
49502;SDS011;35409;48.776;9.204;2023-01-10T08:55:26;11.10;;;1.70;;
49502;SDS011;35409;48.776;9.204;2023-01-10T08:57:53;10.20;;;2.08;;
49502;SDS011;35409;48.776;9.204;2023-01-10T09:00:19;8.73;;;1.85;;
49502;SDS011;35409;48.776;9.204;2023-01-10T09:02:45;11.63;;;1.90;;
49502;SDS011;35409;48.776;9.204;2023-01-10T09:05:10;8.60;;;1.77;;
49502;SDS011;35409;48.776;9.204;2023-01-10T09:07:36;10.05;;;1.98;;
49502;SDS011;35409;48.776;9.204;2023-01-10T09:10:02;7.80;;;1.77;;
49502;SDS011;35409;48.776;9.204;2023-01-10T09:12:28;7.57;;;1.65;;
49502;SDS011;35409;48.776;9.204;2023-01-10T09:15:12;4.85;;;1.85;;
49502;SDS011;35409;48.776;9.204;2023-01-10T09:17:38;11.77;;;2.00;;
49502;SDS011;35409;48.776;9.204;2023-01-10T09:20:04;7.18;;;1.88;;
49502;SDS011;35409;48.776;9.204;2023-01-10T09:22:33;10.40;;;2.08;;
49502;SDS011;35409;48.776;9.204;2023-01-10T09:25:02;9.95;;;1.73;;
49502;SDS011;35409;48.776;9.204;2023-01-10T09:27:30;9.23;;;1.73;;
49502;SDS011;35409;48.776;9.204;2023-01-10T09:29:56;10.45;;;2.05;;
49502;SDS011;35409;48.776;9.204;2023-01-10T09:32:22;13.45;;;2.10;;
49502;SDS011;35409;48.776;9.204;2023-01-10T09:34:48;9.40;;;2.00;;
49502;SDS011;35409;48.776;9.204;2023-01-10T09:37:13;16.45;;;2.88;;
49502;SDS011;35409;48.776;9.204;2023-01-10T09:39:39;9.40;;;2.35;;
49502;SDS011;35409;48.776;9.204;2023-01-10T09:47:23;7.00;;;2.40;;
49502;SDS011;35409;48.776;9.204;2023-01-10T09:50:17;10.88;;;2.05;;
49502;SDS011;35409;48.776;9.204;2023-01-10T09:52:59;13.82;;;3.03;;
49502;SDS011;35409;48.776;9.204;2023-01-10T09:55:32;13.50;;;2.45;;
49502;SDS011;35409;48.776;9.204;2023-01-10T09:58:11;11.05;;;1.90;;
49502;SDS011;35409;48.776;9.204;2023-01-10T10:00:42;12.35;;;2.10;;
49502;SDS011;35409;48.776;9.204;2023-01-10T10:06:01;7.80;;;1.70;;
49502;SDS011;35409;48.776;9.204;2023-01-10T10:08:28;7.60;;;2.03;;
49502;SDS011;35409;48.776;9.204;2023-01-10T10:15:53;8.93;;;1.80;;
49502;SDS011;35409;48.776;9.204;2023-01-10T10:23:43;7.50;;;2.00;;
49502;SDS011;35409;48.776;9.204;2023-01-10T10:26:21;6.90;;;1.70;;
49502;SDS011;35409;48.776;9.204;2023-01-10T10:34:29;7.40;;;1.67;;
49502;SDS011;35409;48.776;9.204;2023-01-10T10:37:12;8.18;;;1.92;;
49502;SDS011;35409;48.776;9.204;2023-01-10T10:39:57;10.07;;;1.90;;
49502;SDS011;35409;48.776;9.204;2023-01-10T10:42:27;10.10;;;1.38;;
49502;SDS011;35409;48.776;9.204;2023-01-10T10:44:58;8.68;;;1.38;;
49502;SDS011;35409;48.776;9.204;2023-01-10T10:47:27;6.82;;;1.85;;
49502;SDS011;35409;48.776;9.204;2023-01-10T10:52:47;4.60;;;1.73;;
49502;SDS011;35409;48.776;9.204;2023-01-10T10:55:14;7.25;;;1.52;;
49502;SDS011;35409;48.776;9.204;2023-01-10T10:57:41;4.93;;;1.77;;
49502;SDS011;35409;48.776;9.204;2023-01-10T11:00:13;7.10;;;1.88;;
49502;SDS011;35409;48.776;9.204;2023-01-10T11:05:50;8.40;;;1.67;;
49502;SDS011;35409;48.776;9.204;2023-01-10T11:08:16;6.70;;;1.38;;
49502;SDS011;35409;48.776;9.204;2023-01-10T11:10:47;9.68;;;1.30;;
49502;SDS011;35409;48.776;9.204;2023-01-10T11:15:51;6.35;;;1.52;;
49502;SDS011;35409;48.776;9.204;2023-01-10T11:18:19;8.05;;;2.10;;
49502;SDS011;35409;48.776;9.204;2023-01-10T11:21:08;6.65;;;1.50;;
49502;SDS011;35409;48.776;9.204;2023-01-10T11:23:56;7.95;;;1.58;;
49502;SDS011;35409;48.776;9.204;2023-01-10T11:28:47;9.38;;;2.15;;
49502;SDS011;35409;48.776;9.204;2023-01-10T11:31:14;8.45;;;2.03;;
49502;SDS011;35409;48.776;9.204;2023-01-10T11:33:52;8.95;;;1.33;;
49502;SDS011;35409;48.776;9.204;2023-01-10T11:36:19;9.55;;;1.55;;
49502;SDS011;35409;48.776;9.204;2023-01-10T11:38:47;8.60;;;1.50;;
49502;SDS011;35409;48.776;9.204;2023-01-10T11:41:27;6.63;;;1.52;;
49502;SDS011;35409;48.776;9.204;2023-01-10T11:46:49;8.73;;;1.80;;
49502;SDS011;35409;48.776;9.204;2023-01-10T11:51:59;9.60;;;1.98;;
49502;SDS011;35409;48.776;9.204;2023-01-10T11:54:32;8.25;;;1.67;;
49502;SDS011;35409;48.776;9.204;2023-01-10T12:02:19;4.43;;;1.48;;
49502;SDS011;35409;48.776;9.204;2023-01-10T12:04:48;6.53;;;1.48;;
49502;SDS011;35409;48.776;9.204;2023-01-10T12:07:16;6.25;;;1.45;;
49502;SDS011;35409;48.776;9.204;2023-01-10T12:09:53;9.18;;;1.80;;
49502;SDS011;35409;48.776;9.204;2023-01-10T12:12:24;7.20;;;1.58;;
49502;SDS011;35409;48.776;9.204;2023-01-10T12:14:52;3.75;;;1.38;;
49502;SDS011;35409;48.776;9.204;2023-01-10T12:17:29;7.85;;;1.67;;
49502;SDS011;35409;48.776;9.204;2023-01-10T12:20:00;7.20;;;1.45;;
49502;SDS011;35409;48.776;9.204;2023-01-10T12:27:24;6.82;;;2.15;;
49502;SDS011;35409;48.776;9.204;2023-01-10T12:30:02;9.35;;;1.58;;
49502;SDS011;35409;48.776;9.204;2023-01-10T12:32:35;4.68;;;1.20;;
49502;SDS011;35409;48.776;9.204;2023-01-10T12:35:13;10.30;;;1.73;;
49502;SDS011;35409;48.776;9.204;2023-01-10T12:37:47;6.22;;;1.33;;
49502;SDS011;35409;48.776;9.204;2023-01-10T12:43:16;5.35;;;1.50;;
49502;SDS011;35409;48.776;9.204;2023-01-10T12:46:13;8.10;;;1.40;;
49502;SDS011;35409;48.776;9.204;2023-01-10T12:48:49;12.45;;;1.60;;
49502;SDS011;35409;48.776;9.204;2023-01-10T12:51:26;6.60;;;1.30;;
49502;SDS011;35409;48.776;9.204;2023-01-10T12:53:57;5.82;;;1.60;;
49502;SDS011;35409;48.776;9.204;2023-01-10T12:56:27;9.27;;;1.23;;
49502;SDS011;35409;48.776;9.204;2023-01-10T12:58:55;7.53;;;1.42;;
49502;SDS011;35409;48.776;9.204;2023-01-10T13:01:31;5.22;;;1.20;;
49502;SDS011;35409;48.776;9.204;2023-01-10T13:04:05;8.70;;;1.23;;
49502;SDS011;35409;48.776;9.204;2023-01-10T13:06:35;8.48;;;1.20;;
49502;SDS011;35409;48.776;9.204;2023-01-10T13:09:23;5.77;;;1.00;;
49502;SDS011;35409;48.776;9.204;2023-01-10T13:11:56;9.20;;;1.40;;
49502;SDS011;35409;48.776;9.204;2023-01-10T13:14:58;6.75;;;1.50;;
49502;SDS011;35409;48.776;9.204;2023-01-10T13:22:40;9.25;;;1.30;;
49502;SDS011;35409;48.776;9.204;2023-01-10T13:28:19;7.97;;;1.48;;
49502;SDS011;35409;48.776;9.204;2023-01-10T13:30:59;6.90;;;1.50;;
49502;SDS011;35409;48.776;9.204;2023-01-10T13:33:31;8.27;;;1.45;;
49502;SDS011;35409;48.776;9.204;2023-01-10T13:36:06;6.30;;;1.02;;
49502;SDS011;35409;48.776;9.204;2023-01-10T13:38:48;4.35;;;1.08;;
49502;SDS011;35409;48.776;9.204;2023-01-10T13:41:16;6.38;;;1.23;;
49502;SDS011;35409;48.776;9.204;2023-01-10T13:53:56;10.50;;;1.50;;
49502;SDS011;35409;48.776;9.204;2023-01-10T13:56:30;9.50;;;2.08;;
49502;SDS011;35409;48.776;9.204;2023-01-10T13:58:56;8.73;;;1.63;;
49502;SDS011;35409;48.776;9.204;2023-01-10T14:01:40;5.57;;;1.35;;
49502;SDS011;35409;48.776;9.204;2023-01-10T14:04:26;6.85;;;1.20;;
49502;SDS011;35409;48.776;9.204;2023-01-10T14:06:58;8.73;;;1.33;;
49502;SDS011;35409;48.776;9.204;2023-01-10T14:12:02;6.07;;;1.48;;
49502;SDS011;35409;48.776;9.204;2023-01-10T14:14:33;10.68;;;1.40;;
49502;SDS011;35409;48.776;9.204;2023-01-10T14:20:05;11.48;;;1.60;;
49502;SDS011;35409;48.776;9.204;2023-01-10T14:22:37;9.75;;;1.10;;
49502;SDS011;35409;48.776;9.204;2023-01-10T14:25:20;12.05;;;1.80;;
49502;SDS011;35409;48.776;9.204;2023-01-10T14:27:49;5.00;;;1.20;;
49502;SDS011;35409;48.776;9.204;2023-01-10T14:30:17;12.57;;;1.58;;
49502;SDS011;35409;48.776;9.204;2023-01-10T14:32:55;7.13;;;1.33;;
49502;SDS011;35409;48.776;9.204;2023-01-10T14:35:26;7.23;;;1.23;;
49502;SDS011;35409;48.776;9.204;2023-01-10T14:37:57;7.45;;;1.20;;
49502;SDS011;35409;48.776;9.204;2023-01-10T14:43:11;5.00;;;1.23;;
49502;SDS011;35409;48.776;9.204;2023-01-10T14:53:42;10.32;;;1.40;;
49502;SDS011;35409;48.776;9.204;2023-01-10T14:56:21;7.78;;;1.50;;
49502;SDS011;35409;48.776;9.204;2023-01-10T14:59:17;11.18;;;1.35;;
49502;SDS011;35409;48.776;9.204;2023-01-10T15:01:47;7.20;;;2.00;;
49502;SDS011;35409;48.776;9.204;2023-01-10T15:04:18;6.38;;;2.08;;
49502;SDS011;35409;48.776;9.204;2023-01-10T15:06:49;9.38;;;1.92;;
49502;SDS011;35409;48.776;9.204;2023-01-10T15:09:16;7.18;;;2.15;;
49502;SDS011;35409;48.776;9.204;2023-01-10T15:11:41;8.95;;;1.70;;
49502;SDS011;35409;48.776;9.204;2023-01-10T15:14:08;8.50;;;1.65;;
49502;SDS011;35409;48.776;9.204;2023-01-10T15:16:41;9.25;;;1.65;;
49502;SDS011;35409;48.776;9.204;2023-01-10T15:19:12;12.07;;;2.90;;
49502;SDS011;35409;48.776;9.204;2023-01-10T15:21:42;6.40;;;1.27;;
49502;SDS011;35409;48.776;9.204;2023-01-10T15:24:21;3.17;;;1.15;;
49502;SDS011;35409;48.776;9.204;2023-01-10T15:26:50;12.70;;;1.70;;
49502;SDS011;35409;48.776;9.204;2023-01-10T15:29:20;6.78;;;1.27;;
49502;SDS011;35409;48.776;9.204;2023-01-10T15:31:48;8.23;;;1.65;;
49502;SDS011;35409;48.776;9.204;2023-01-10T15:34:19;7.72;;;1.10;;
49502;SDS011;35409;48.776;9.204;2023-01-10T15:36:48;6.65;;;1.00;;
49502;SDS011;35409;48.776;9.204;2023-01-10T15:39:19;5.82;;;1.00;;
49502;SDS011;35409;48.776;9.204;2023-01-10T15:41:47;6.88;;;1.50;;
49502;SDS011;35409;48.776;9.204;2023-01-10T15:44:21;7.25;;;1.50;;
49502;SDS011;35409;48.776;9.204;2023-01-10T15:47:30;9.57;;;2.50;;
49502;SDS011;35409;48.776;9.204;2023-01-10T15:49:58;9.48;;;2.47;;
49502;SDS011;35409;48.776;9.204;2023-01-10T15:52:23;9.43;;;2.45;;
49502;SDS011;35409;48.776;9.204;2023-01-10T15:54:49;7.80;;;1.80;;
49502;SDS011;35409;48.776;9.204;2023-01-10T15:57:18;11.68;;;2.08;;
49502;SDS011;35409;48.776;9.204;2023-01-10T15:59:49;9.30;;;1.52;;
49502;SDS011;35409;48.776;9.204;2023-01-10T16:02:28;5.75;;;1.40;;
49502;SDS011;35409;48.776;9.204;2023-01-10T16:05:17;8.63;;;1.85;;
49502;SDS011;35409;48.776;9.204;2023-01-10T16:07:43;7.53;;;2.00;;
49502;SDS011;35409;48.776;9.204;2023-01-10T16:12:44;13.52;;;1.30;;
49502;SDS011;35409;48.776;9.204;2023-01-10T16:15:29;4.18;;;1.15;;
49502;SDS011;35409;48.776;9.204;2023-01-10T16:17:57;8.00;;;1.50;;
49502;SDS011;35409;48.776;9.204;2023-01-10T16:20:35;8.45;;;1.75;;
49502;SDS011;35409;48.776;9.204;2023-01-10T16:23:03;9.15;;;1.85;;
49502;SDS011;35409;48.776;9.204;2023-01-10T16:25:33;5.93;;;1.95;;
49502;SDS011;35409;48.776;9.204;2023-01-10T16:28:02;9.65;;;2.28;;
49502;SDS011;35409;48.776;9.204;2023-01-10T16:30:30;8.52;;;2.22;;
49502;SDS011;35409;48.776;9.204;2023-01-10T16:32:57;5.07;;;1.45;;
49502;SDS011;35409;48.776;9.204;2023-01-10T16:35:26;8.13;;;1.67;;
49502;SDS011;35409;48.776;9.204;2023-01-10T16:37:52;8.38;;;1.60;;
49502;SDS011;35409;48.776;9.204;2023-01-10T16:40:22;8.15;;;1.45;;
49502;SDS011;35409;48.776;9.204;2023-01-10T16:42:51;8.52;;;1.80;;
49502;SDS011;35409;48.776;9.204;2023-01-10T16:45:36;8.18;;;1.38;;
49502;SDS011;35409;48.776;9.204;2023-01-10T16:48:02;11.75;;;2.45;;
49502;SDS011;35409;48.776;9.204;2023-01-10T16:50:28;8.07;;;1.80;;
49502;SDS011;35409;48.776;9.204;2023-01-10T16:52:54;9.60;;;1.95;;
49502;SDS011;35409;48.776;9.204;2023-01-10T16:55:21;7.70;;;2.03;;
49502;SDS011;35409;48.776;9.204;2023-01-10T16:57:57;14.73;;;2.30;;
49502;SDS011;35409;48.776;9.204;2023-01-10T17:00:23;8.35;;;2.28;;
49502;SDS011;35409;48.776;9.204;2023-01-10T17:02:48;8.35;;;2.33;;
49502;SDS011;35409;48.776;9.204;2023-01-10T17:05:14;8.05;;;1.80;;